Time;durP1;ratioP1;P1;durP2;ratioP2;P2;SDS_P1;SDS_P2;PMS_P1;PMS_P2;Temp;Humidity;BMP_temperature;BMP_pressure;BME280_temperature;BME280_humidity;BME280_pressure;Samples;Min_cycle;Max_cycle;Signal;HPM_P1;HPM_P2
2022/10/04 00:01:07;;;;;;;3.60;2.40;;;;;;;;;;5041270;28;20734;-54
2022/10/04 00:03:41;;;;;;;3.13;2.40;;;;;;;;;;5029227;28;20341;-51
2022/10/04 00:06:13;;;;;;;4.13;2.60;;;;;;;;;;5027825;28;20286;-52
2022/10/04 00:09:04;;;;;;;4.33;2.50;;;;;;;;;;5026884;28;20326;-50
2022/10/04 00:11:35;;;;;;;4.07;2.37;;;;;;;;;;5026580;28;20291;-53
2022/10/04 00:14:19;;;;;;;3.50;2.50;;;;;;;;;;5044139;28;20787;-51
2022/10/04 00:16:46;;;;;;;3.10;2.37;;;;;;;;;;5028103;28;20302;-50
2022/10/04 00:19:18;;;;;;;3.20;2.40;;;;;;;;;;5023688;28;21291;-52
2022/10/04 00:22:11;;;;;;;3.00;2.33;;;;;;;;;;5027153;28;20372;-52
2022/10/04 00:25:00;;;;;;;2.43;2.20;;;;;;;;;;5002392;28;20353;-54
2022/10/04 00:27:27;;;;;;;2.47;2.23;;;;;;;;;;5024677;28;21498;-49
2022/10/04 00:30:00;;;;;;;3.83;2.40;;;;;;;;;;5039893;28;20206;-51
2022/10/04 00:32:31;;;;;;;3.07;2.10;;;;;;;;;;5024869;28;20824;-53
2022/10/04 00:34:58;;;;;;;2.63;1.90;;;;;;;;;;5020143;28;20290;-52
2022/10/04 00:37:26;;;;;;;2.90;2.20;;;;;;;;;;5023141;28;20286;-52
2022/10/04 00:40:00;;;;;;;2.37;2.07;;;;;;;;;;5022023;28;20294;-52
2022/10/04 00:42:47;;;;;;;3.27;2.37;;;;;;;;;;5020327;28;20265;-52
2022/10/04 00:45:27;;;;;;;2.50;2.20;;;;;;;;;;5029767;28;20230;-50
2022/10/04 00:47:59;;;;;;;2.63;2.00;;;;;;;;;;5021963;28;20295;-53
2022/10/04 00:50:36;;;;;;;2.33;2.10;;;;;;;;;;5021281;28;20298;-53
2022/10/04 00:53:11;;;;;;;3.60;2.80;;;;;;;;;;5023025;28;20222;-52
2022/10/04 00:55:44;;;;;;;3.50;2.43;;;;;;;;;;5023894;28;20206;-53
2022/10/04 00:58:38;;;;;;;3.40;2.20;;;;;;;;;;5020935;28;20836;-54
2022/10/04 01:01:05;;;;;;;2.63;2.10;;;;;;;;;;5019471;28;20206;-52
2022/10/04 01:03:36;;;;;;;3.50;2.20;;;;;;;;;;5019200;28;20226;-53
2022/10/04 01:06:04;;;;;;;2.83;2.20;;;;;;;;;;5020378;28;20731;-53
2022/10/04 01:08:34;;;;;;;3.27;2.40;;;;;;;;;;5038757;28;20302;-54
2022/10/04 01:11:03;;;;;;;4.07;2.53;;;;;;;;;;5038219;28;20697;-52
2022/10/04 01:13:39;;;;;;;3.00;2.53;;;;;;;;;;5022726;28;20805;-49
2022/10/04 01:16:13;;;;;;;2.83;2.30;;;;;;;;;;5018124;28;20302;-50
2022/10/04 01:18:40;;;;;;;3.07;2.27;;;;;;;;;;5039074;28;20280;-53
2022/10/04 01:21:08;;;;;;;2.87;2.50;;;;;;;;;;5020315;28;20983;-51
2022/10/04 01:23:52;;;;;;;2.80;2.30;;;;;;;;;;5024128;28;20325;-53
2022/10/04 01:26:33;;;;;;;2.63;2.10;;;;;;;;;;5023409;28;20672;-48
2022/10/04 01:29:01;;;;;;;3.23;2.47;;;;;;;;;;5024081;28;20203;-53
2022/10/04 01:31:29;;;;;;;4.40;2.23;;;;;;;;;;5020442;28;20674;-52
2022/10/04 01:33:56;;;;;;;2.40;2.20;;;;;;;;;;5038578;28;20992;-52
2022/10/04 01:36:22;;;;;;;2.40;2.20;;;;;;;;;;5022791;28;20618;-54
2022/10/04 01:38:49;;;;;;;2.60;2.10;;;;;;;;;;5023472;28;20257;-54
2022/10/04 01:41:19;;;;;;;2.83;2.20;;;;;;;;;;5018864;28;20760;-51
2022/10/04 01:43:49;;;;;;;2.23;1.97;;;;;;;;;;5023307;28;20310;-54
2022/10/04 01:46:20;;;;;;;3.73;2.47;;;;;;;;;;5037874;28;20202;-49
2022/10/04 01:48:47;;;;;;;2.50;2.30;;;;;;;;;;5038714;28;20213;-50
2022/10/04 01:51:18;;;;;;;3.37;2.30;;;;;;;;;;5017417;28;20230;-49
2022/10/04 01:53:52;;;;;;;2.80;2.30;;;;;;;;;;5022193;28;20778;-52
2022/10/04 01:56:24;;;;;;;3.07;2.40;;;;;;;;;;5023288;28;21433;-51
2022/10/04 01:58:58;;;;;;;2.97;2.23;;;;;;;;;;5020379;28;20689;-52
2022/10/04 02:01:47;;;;;;;3.00;2.40;;;;;;;;;;5003103;28;20207;-52
2022/10/04 02:04:19;;;;;;;2.80;2.10;;;;;;;;;;5022440;28;20694;-52
2022/10/04 02:06:53;;;;;;;2.93;2.47;;;;;;;;;;5020594;28;20205;-50
2022/10/04 02:09:23;;;;;;;2.80;2.50;;;;;;;;;;5036185;28;20210;-54
2022/10/04 02:11:52;;;;;;;2.80;2.17;;;;;;;;;;5022883;28;20289;-52
2022/10/04 02:14:25;;;;;;;2.83;2.27;;;;;;;;;;5020442;28;20313;-52
2022/10/04 02:16:52;;;;;;;2.67;2.17;;;;;;;;;;5038118;28;20567;-52
2022/10/04 02:19:26;;;;;;;2.70;2.00;;;;;;;;;;5037212;28;20292;-53
2022/10/04 02:21:53;;;;;;;2.80;2.20;;;;;;;;;;5033065;28;20778;-52
2022/10/04 02:24:20;;;;;;;2.60;2.10;;;;;;;;;;5038804;28;20868;-54
2022/10/04 02:26:53;;;;;;;2.10;1.90;;;;;;;;;;5021883;28;20301;-52
2022/10/04 02:29:19;;;;;;;2.67;2.10;;;;;;;;;;5022568;28;20665;-53
2022/10/04 02:34:33;;;;;;;2.80;2.50;;;;;;;;;;5035657;28;20913;-54
2022/10/04 02:37:04;;;;;;;2.60;2.30;;;;;;;;;;5026094;28;20235;-52
2022/10/04 02:39:42;;;;;;;2.67;1.97;;;;;;;;;;5024344;28;20767;-51
2022/10/04 02:42:14;;;;;;;2.43;2.13;;;;;;;;;;5025473;28;20327;-53
2022/10/04 02:45:18;;;;;;;2.87;2.20;;;;;;;;;;5039035;28;20314;-52
2022/10/04 02:47:50;;;;;;;2.17;1.70;;;;;;;;;;5020498;28;20206;-53
2022/10/04 02:50:30;;;;;;;2.47;2.00;;;;;;;;;;5022507;28;20302;-53
2022/10/04 02:53:01;;;;;;;3.00;2.27;;;;;;;;;;5023116;28;20246;-52
2022/10/04 02:55:30;;;;;;;2.13;1.93;;;;;;;;;;5023783;28;20687;-52
2022/10/04 02:57:58;;;;;;;3.17;2.37;;;;;;;;;;5038240;28;20689;-52
2022/10/04 03:00:30;;;;;;;2.53;2.10;;;;;;;;;;5023284;28;20675;-55
2022/10/04 03:03:15;;;;;;;2.57;2.00;;;;;;;;;;5023731;28;20233;-53
2022/10/04 03:05:44;;;;;;;2.13;1.70;;;;;;;;;;5028743;28;20222;-54
2022/10/04 03:08:11;;;;;;;2.60;2.07;;;;;;;;;;5039849;28;20198;-53
2022/10/04 03:10:41;;;;;;;2.73;2.30;;;;;;;;;;5028110;28;20202;-53
2022/10/04 03:13:08;;;;;;;2.63;2.10;;;;;;;;;;5026284;28;20637;-49
2022/10/04 03:15:34;;;;;;;2.80;2.10;;;;;;;;;;5026084;28;20969;-52
2022/10/04 03:18:01;;;;;;;2.50;2.00;;;;;;;;;;5024522;28;20290;-48
2022/10/04 03:20:27;;;;;;;2.57;2.10;;;;;;;;;;5024268;28;20769;-53
2022/10/04 03:22:54;;;;;;;2.23;2.03;;;;;;;;;;5025451;28;20313;-52
2022/10/04 03:25:27;;;;;;;2.33;2.00;;;;;;;;;;5025926;28;20289;-54
2022/10/04 03:27:58;;;;;;;2.67;2.10;;;;;;;;;;5027797;28;20675;-48
2022/10/04 03:30:25;;;;;;;2.80;2.03;;;;;;;;;;5027401;28;20728;-52
2022/10/04 03:32:51;;;;;;;2.20;2.00;;;;;;;;;;5024282;28;20219;-52
2022/10/04 03:35:29;;;;;;;2.17;1.90;;;;;;;;;;5028045;28;20335;-53
2022/10/04 03:37:56;;;;;;;2.63;2.20;;;;;;;;;;5027208;28;20317;-48
2022/10/04 03:40:26;;;;;;;2.93;1.83;;;;;;;;;;5026577;28;20238;-53
2022/10/04 03:42:53;;;;;;;3.23;2.30;;;;;;;;;;5041454;28;20386;-52
2022/10/04 03:45:21;;;;;;;2.47;1.97;;;;;;;;;;5027781;28;20288;-50
2022/10/04 03:47:49;;;;;;;2.30;2.10;;;;;;;;;;5025458;28;20278;-54
2022/10/04 03:50:20;;;;;;;2.13;1.77;;;;;;;;;;5027649;28;20286;-54
2022/10/04 03:52:50;;;;;;;2.40;2.00;;;;;;;;;;5007241;28;20301;-53
2022/10/04 03:55:17;;;;;;;2.43;2.00;;;;;;;;;;5025089;28;20234;-52
2022/10/04 03:57:43;;;;;;;3.03;1.80;;;;;;;;;;5023510;28;20238;-49
2022/10/04 04:00:14;;;;;;;2.23;1.90;;;;;;;;;;5028137;28;20234;-50
2022/10/04 04:03:06;;;;;;;3.03;2.13;;;;;;;;;;5039525;28;20230;-51
2022/10/04 04:05:46;;;;;;;2.20;1.90;;;;;;;;;;5029273;28;20235;-52
2022/10/04 04:08:19;;;;;;;2.03;1.80;;;;;;;;;;5025985;28;20351;-53
2022/10/04 04:10:49;;;;;;;2.47;2.00;;;;;;;;;;5025626;28;20911;-53
2022/10/04 04:13:21;;;;;;;2.20;1.80;;;;;;;;;;5025826;28;20341;-53
2022/10/04 04:15:48;;;;;;;3.43;2.20;;;;;;;;;;5023824;28;20726;-52
2022/10/04 04:18:22;;;;;;;2.33;1.80;;;;;;;;;;5041201;28;20576;-54
2022/10/04 04:20:50;;;;;;;2.20;2.00;;;;;;;;;;5023087;28;20299;-52
2022/10/04 04:23:42;;;;;;;3.33;2.30;;;;;;;;;;5038872;28;20305;-50
2022/10/04 04:26:18;;;;;;;2.10;1.90;;;;;;;;;;5026405;28;20286;-53
2022/10/04 04:28:48;;;;;;;2.10;1.90;;;;;;;;;;5026550;28;20286;-51
2022/10/04 04:31:28;;;;;;;2.50;2.30;;;;;;;;;;5026975;28;20636;-50
2022/10/04 04:34:02;;;;;;;2.90;2.00;;;;;;;;;;5024613;28;20217;-52
2022/10/04 04:36:31;;;;;;;1.97;1.77;;;;;;;;;;5026934;28;21482;-50
2022/10/04 04:42:17;;;;;;;1.90;1.70;;;;;;;;;;5023569;28;20674;-54
2022/10/04 04:44:49;;;;;;;2.67;2.00;;;;;;;;;;5026516;28;20280;-53
2022/10/04 04:47:33;;;;;;;2.37;2.00;;;;;;;;;;5022523;28;20286;-50
2022/10/04 04:50:06;;;;;;;1.90;1.70;;;;;;;;;;5024126;28;20774;-50
2022/10/04 04:52:32;;;;;;;2.40;2.00;;;;;;;;;;5025871;28;20750;-53
2022/10/04 04:54:59;;;;;;;2.23;1.90;;;;;;;;;;5026117;28;20742;-49
2022/10/04 04:57:26;;;;;;;2.10;1.90;;;;;;;;;;5027069;28;20294;-52
2022/10/04 04:59:56;;;;;;;2.70;2.50;;;;;;;;;;5022820;28;20281;-53
2022/10/04 05:02:49;;;;;;;2.80;2.27;;;;;;;;;;5024516;28;20321;-51
2022/10/04 05:05:30;;;;;;;2.63;2.10;;;;;;;;;;5026513;28;20622;-48
2022/10/04 05:08:18;;;;;;;2.63;2.10;;;;;;;;;;5024973;28;20599;-53
2022/10/04 05:10:54;;;;;;;2.00;1.80;;;;;;;;;;5023873;28;20294;-51
2022/10/04 05:13:21;;;;;;;2.43;2.00;;;;;;;;;;5025361;28;20254;-48
2022/10/04 05:15:52;;;;;;;3.20;2.73;;;;;;;;;;5020673;28;20230;-53
2022/10/04 05:18:30;;;;;;;2.10;1.90;;;;;;;;;;5019895;28;20306;-52
2022/10/04 05:21:23;;;;;;;2.20;2.00;;;;;;;;;;5023739;28;20224;-49
2022/10/04 05:23:50;;;;;;;2.27;1.60;;;;;;;;;;5020689;28;21777;-51
2022/10/04 05:26:24;;;;;;;2.10;1.70;;;;;;;;;;5023364;28;20265;-51
2022/10/04 05:28:50;;;;;;;4.70;3.43;;;;;;;;;;5021837;28;20623;-60
2022/10/04 05:31:37;;;;;;;4.70;3.40;;;;;;;;;;5021795;28;20294;-59
2022/10/04 05:34:17;;;;;;;6.60;3.80;;;;;;;;;;5024852;28;20215;-55
2022/10/04 05:37:01;;;;;;;8.87;3.80;;;;;;;;;;5027245;28;20289;-57
2022/10/04 05:39:49;;;;;;;3.43;2.53;;;;;;;;;;5014024;28;20301;-51
2022/10/04 05:42:22;;;;;;;4.73;2.63;;;;;;;;;;5035194;28;20326;-53
2022/10/04 05:44:53;;;;;;;2.70;2.40;;;;;;;;;;5018024;28;20413;-52
2022/10/04 05:47:22;;;;;;;2.53;2.30;;;;;;;;;;5013236;28;20333;-50
2022/10/04 05:49:52;;;;;;;3.17;2.10;;;;;;;;;;5013902;28;20209;-49
2022/10/04 05:52:37;;;;;;;3.20;2.43;;;;;;;;;;5014574;28;20230;-49
2022/10/04 05:55:31;;;;;;;2.57;2.23;;;;;;;;;;5020179;28;20199;-51
2022/10/04 05:58:04;;;;;;;3.63;2.33;;;;;;;;;;5016766;28;20230;-48
2022/10/04 06:01:09;;;;;;;2.87;2.10;;;;;;;;;;5016455;28;20203;-51
2022/10/04 06:03:54;;;;;;;3.60;2.37;;;;;;;;;;5015839;28;20389;-55
2022/10/04 06:06:34;;;;;;;5.28;2.60;;;;;;;;;;5013763;28;20230;-55
2022/10/04 06:09:03;;;;;;;2.20;2.00;;;;;;;;;;5015090;28;20244;-56
2022/10/04 06:11:51;;;;;;;2.22;1.90;;;;;;;;;;5016233;28;20325;-56
2022/10/04 06:14:49;;;;;;;4.30;2.00;;;;;;;;;;5010459;28;20322;-53
2022/10/04 06:17:40;;;;;;;2.60;2.00;;;;;;;;;;5014330;28;21021;-58
2022/10/04 06:20:18;;;;;;;2.70;2.20;;;;;;;;;;5017756;28;20226;-52
2022/10/04 06:22:46;;;;;;;3.42;2.30;;;;;;;;;;5013916;28;20227;-53
2022/10/04 06:25:22;;;;;;;2.20;2.00;;;;;;;;;;5013586;28;20227;-51
2022/10/04 06:27:56;;;;;;;2.10;1.90;;;;;;;;;;5014388;28;20294;-54
2022/10/04 06:30:23;;;;;;;2.65;1.98;;;;;;;;;;5027175;28;21096;-57
2022/10/04 06:33:13;;;;;;;2.03;1.80;;;;;;;;;;5027405;28;20302;-57
2022/10/04 06:35:48;;;;;;;2.80;2.20;;;;;;;;;;5011141;28;21019;-56
2022/10/04 06:38:35;;;;;;;2.45;2.10;;;;;;;;;;5019507;28;20301;-57
2022/10/04 06:41:42;;;;;;;2.20;1.85;;;;;;;;;;5016039;28;20754;-54
2022/10/04 06:44:24;;;;;;;4.15;2.15;;;;;;;;;;4935798;28;20220;-57
2022/10/04 06:47:25;;;;;;;2.38;2.10;;;;;;;;;;5015141;28;20321;-54
2022/10/04 06:50:13;;;;;;;2.37;2.10;;;;;;;;;;5031635;28;20402;-55
2022/10/04 06:52:40;;;;;;;2.43;1.90;;;;;;;;;;5021289;28;20341;-47
2022/10/04 06:55:32;;;;;;;3.23;2.70;;;;;;;;;;5027125;28;20199;-48
2022/10/04 06:58:09;;;;;;;4.27;3.30;;;;;;;;;;5026822;28;20210;-46
2022/10/04 07:00:44;;;;;;;5.80;3.30;;;;;;;;;;5020287;28;20290;-48
2022/10/04 07:03:18;;;;;;;4.33;3.57;;;;;;;;;;5021942;28;20236;-46
2022/10/04 07:05:53;;;;;;;6.13;3.77;;;;;;;;;;5021749;28;20253;-47
2022/10/04 07:08:30;;;;;;;2.43;2.23;;;;;;;;;;5016327;28;20635;-48
2022/10/04 07:11:04;;;;;;;3.40;2.40;;;;;;;;;;5018232;28;20330;-44
2022/10/04 07:13:41;;;;;;;5.20;4.17;;;;;;;;;;5029086;28;20245;-51
2022/10/04 07:16:33;;;;;;;3.70;2.50;;;;;;;;;;5039296;28;20199;-50
2022/10/04 07:19:18;;;;;;;5.10;2.23;;;;;;;;;;5045259;28;20282;-46
2022/10/04 07:21:58;;;;;;;3.50;2.73;;;;;;;;;;5033180;28;20256;-51
2022/10/04 07:24:36;;;;;;;3.23;2.33;;;;;;;;;;5050051;28;20312;-46
2022/10/04 07:27:07;;;;;;;5.60;2.87;;;;;;;;;;5033762;28;20293;-47
2022/10/04 07:29:36;;;;;;;4.33;2.60;;;;;;;;;;5047724;28;20223;-48
2022/10/04 07:32:12;;;;;;;4.77;3.70;;;;;;;;;;5031516;28;20199;-48
2022/10/04 07:35:03;;;;;;;4.67;2.93;;;;;;;;;;5033666;28;20639;-46
2022/10/04 07:37:35;;;;;;;3.47;2.37;;;;;;;;;;5034528;28;20203;-47
2022/10/04 07:40:28;;;;;;;3.77;2.50;;;;;;;;;;5034466;28;20289;-48
2022/10/04 07:43:03;;;;;;;4.30;2.40;;;;;;;;;;5031582;28;20245;-52
2022/10/04 07:45:36;;;;;;;3.00;2.37;;;;;;;;;;5032608;28;20288;-49
2022/10/04 07:48:13;;;;;;;4.50;2.90;;;;;;;;;;5048275;28;20649;-50
2022/10/04 07:50:57;;;;;;;3.57;2.17;;;;;;;;;;5047112;28;20285;-51
2022/10/04 07:53:39;;;;;;;3.57;2.50;;;;;;;;;;5033601;28;20878;-49
2022/10/04 07:56:11;;;;;;;4.00;2.50;;;;;;;;;;5049052;28;20315;-47
2022/10/04 07:58:47;;;;;;;4.13;2.60;;;;;;;;;;5031678;28;20293;-50
2022/10/04 08:01:36;;;;;;;2.90;2.50;;;;;;;;;;5030498;28;20229;-52
2022/10/04 08:04:28;;;;;;;3.23;1.90;;;;;;;;;;5030230;28;20231;-49
2022/10/04 08:07:00;;;;;;;2.73;1.93;;;;;;;;;;5032449;28;20686;-48
2022/10/04 08:10:05;;;;;;;4.00;2.10;;;;;;;;;;5029180;28;20318;-52
2022/10/04 08:12:43;;;;;;;2.30;2.10;;;;;;;;;;5032409;28;20291;-49
2022/10/04 08:15:12;;;;;;;3.10;2.37;;;;;;;;;;5031089;28;20620;-50
2022/10/04 08:18:10;;;;;;;4.53;3.23;;;;;;;;;;5031530;28;20297;-51
2022/10/04 08:20:49;;;;;;;3.57;2.27;;;;;;;;;;5029302;28;20329;-51
2022/10/04 08:23:40;;;;;;;6.50;3.37;;;;;;;;;;5046301;28;20615;-52
2022/10/04 08:26:09;;;;;;;4.07;2.80;;;;;;;;;;5045362;28;20242;-51
2022/10/04 08:29:42;;;;;;;2.77;2.27;;;;;;;;;;5028543;28;20203;-51
2022/10/04 08:32:29;;;;;;;3.60;2.00;;;;;;;;;;5012313;28;20240;-50
2022/10/04 08:35:18;;;;;;;2.27;2.00;;;;;;;;;;5030874;28;20572;-48
2022/10/04 08:38:04;;;;;;;3.93;3.27;;;;;;;;;;5033263;28;20790;-49
2022/10/04 08:40:48;;;;;;;7.17;4.17;;;;;;;;;;5032307;28;20828;-49
2022/10/04 08:43:34;;;;;;;5.97;3.90;;;;;;;;;;5030460;28;20226;-52
2022/10/04 08:46:03;;;;;;;6.53;4.73;;;;;;;;;;5030486;28;20230;-49
2022/10/04 08:48:48;;;;;;;5.80;3.08;;;;;;;;;;5031154;28;20207;-50
2022/10/04 08:51:30;;;;;;;3.07;2.33;;;;;;;;;;5031714;28;20321;-49
2022/10/04 08:54:17;;;;;;;2.93;2.30;;;;;;;;;;5013612;28;20257;-48
2022/10/04 08:57:02;;;;;;;4.10;2.37;;;;;;;;;;5031792;28;20237;-51
2022/10/04 08:59:56;;;;;;;2.80;2.23;;;;;;;;;;5031548;28;20236;-46
2022/10/04 09:02:47;;;;;;;2.60;2.13;;;;;;;;;;5045305;28;20301;-51
2022/10/04 09:05:44;;;;;;;4.03;2.40;;;;;;;;;;5031932;28;20634;-52
2022/10/04 09:08:46;;;;;;;3.83;2.40;;;;;;;;;;5032083;28;20293;-49
2022/10/04 09:11:44;;;;;;;2.47;2.00;;;;;;;;;;5029414;28;20309;-49
2022/10/04 09:14:35;;;;;;;8.93;5.63;;;;;;;;;;5027610;28;20616;-49
2022/10/04 09:17:22;;;;;;;8.10;5.45;;;;;;;;;;5032597;28;20730;-50
2022/10/04 09:19:55;;;;;;;7.93;4.40;;;;;;;;;;5045317;28;20210;-48
2022/10/04 09:23:11;;;;;;;8.20;5.50;;;;;;;;;;5030581;28;20226;-47
2022/10/04 09:25:43;;;;;;;3.08;2.15;;;;;;;;;;5043019;28;20297;-47
2022/10/04 09:28:47;;;;;;;4.63;3.40;;;;;;;;;;5030946;28;20210;-46
2022/10/04 09:31:49;;;;;;;5.05;2.58;;;;;;;;;;5028541;28;20209;-50
2022/10/04 09:34:34;;;;;;;3.47;2.70;;;;;;;;;;5030595;28;20670;-51
2022/10/04 09:37:40;;;;;;;3.15;2.40;;;;;;;;;;5032237;28;20278;-51
2022/10/04 09:40:27;;;;;;;4.80;3.67;;;;;;;;;;5029965;28;20724;-50
2022/10/04 09:43:06;;;;;;;8.05;5.00;;;;;;;;;;5029330;28;20226;-50
2022/10/04 09:46:10;;;;;;;6.50;3.50;;;;;;;;;;5033485;28;20293;-48
2022/10/04 09:48:41;;;;;;;5.50;3.40;;;;;;;;;;5033240;28;20202;-46
2022/10/04 09:51:41;;;;;;;5.10;3.47;;;;;;;;;;5031468;28;20307;-50
2022/10/04 09:54:36;;;;;;;5.30;4.13;;;;;;;;;;5010667;28;20773;-50
2022/10/04 09:57:36;;;;;;;7.53;4.55;;;;;;;;;;5029558;28;20233;-48
2022/10/04 10:00:23;;;;;;;5.70;4.47;;;;;;;;;;5028166;28;20199;-50
2022/10/04 10:03:07;;;;;;;6.70;4.28;;;;;;;;;;5029798;28;20210;-46
2022/10/04 10:06:00;;;;;;;4.47;3.22;;;;;;;;;;5032979;28;20287;-48
2022/10/04 10:08:36;;;;;;;8.93;4.50;;;;;;;;;;5029425;28;20687;-49
2022/10/04 10:14:25;;;;;;;8.85;4.88;;;;;;;;;;5044764;28;20218;-46
2022/10/04 10:17:00;;;;;;;11.32;7.10;;;;;;;;;;5032073;28;20598;-48
2022/10/04 10:19:32;;;;;;;6.20;4.35;;;;;;;;;;5032412;28;20280;-52
2022/10/04 10:22:01;;;;;;;5.70;3.83;;;;;;;;;;5034653;28;20209;-47
2022/10/04 10:24:43;;;;;;;3.45;2.72;;;;;;;;;;5034508;28;20418;-48
2022/10/04 10:27:47;;;;;;;3.50;2.70;;;;;;;;;;5049035;28;20673;-49
2022/10/04 10:30:32;;;;;;;3.28;2.95;;;;;;;;;;5033550;28;20285;-52
2022/10/04 10:33:37;;;;;;;4.20;3.20;;;;;;;;;;5032758;28;20310;-50
2022/10/04 10:36:16;;;;;;;3.67;2.97;;;;;;;;;;5033617;28;21122;-50
2022/10/04 10:39:04;;;;;;;3.45;2.80;;;;;;;;;;5033766;28;20218;-49
2022/10/04 10:42:05;;;;;;;3.75;2.80;;;;;;;;;;5033532;28;20299;-51
2022/10/04 10:45:08;;;;;;;3.72;3.17;;;;;;;;;;5027580;28;20313;-46
2022/10/04 10:48:00;;;;;;;3.20;2.70;;;;;;;;;;5034770;28;20279;-50
2022/10/04 10:50:57;;;;;;;5.80;3.95;;;;;;;;;;5033294;28;20272;-51
2022/10/04 10:53:58;;;;;;;4.00;2.92;;;;;;;;;;5032871;28;20273;-51
2022/10/04 10:56:59;;;;;;;4.43;3.17;;;;;;;;;;5034979;28;20683;-50
2022/10/04 11:00:06;;;;;;;4.80;3.50;;;;;;;;;;5049930;28;20206;-52
2022/10/04 11:02:47;;;;;;;3.58;2.75;;;;;;;;;;5047580;28;20317;-46
2022/10/04 11:05:41;;;;;;;4.15;2.60;;;;;;;;;;5032881;28;20267;-49
2022/10/04 11:08:42;;;;;;;3.50;2.85;;;;;;;;;;5032781;28;20611;-46
2022/10/04 11:11:31;;;;;;;4.10;2.22;;;;;;;;;;5027982;28;20293;-47
2022/10/04 11:14:36;;;;;;;6.57;3.67;;;;;;;;;;5026702;28;20750;-49
2022/10/04 11:17:24;;;;;;;3.53;2.78;;;;;;;;;;5016018;28;20195;-49
2022/10/04 11:20:28;;;;;;;5.38;3.65;;;;;;;;;;5032480;28;20608;-48
2022/10/04 11:23:33;;;;;;;3.22;2.55;;;;;;;;;;5032409;28;20222;-45
2022/10/04 11:26:14;;;;;;;5.28;3.17;;;;;;;;;;5033352;28;20305;-48
2022/10/04 11:28:45;;;;;;;6.07;3.90;;;;;;;;;;5031392;28;20314;-48
2022/10/04 11:31:53;;;;;;;6.28;3.13;;;;;;;;;;5032122;28;20748;-46
2022/10/04 11:34:34;;;;;;;4.43;3.20;;;;;;;;;;5033408;28;20317;-51
2022/10/04 11:37:17;;;;;;;4.15;3.08;;;;;;;;;;5033612;28;20294;-46
2022/10/04 11:40:12;;;;;;;6.82;4.38;;;;;;;;;;5032960;28;20202;-49
2022/10/04 11:42:44;;;;;;;6.10;3.40;;;;;;;;;;5030244;28;20230;-47
2022/10/04 11:45:32;;;;;;;4.65;3.33;;;;;;;;;;5032298;28;20975;-47
2022/10/04 11:48:10;;;;;;;2.95;2.38;;;;;;;;;;5029175;28;20256;-51
2022/10/04 11:51:20;;;;;;;3.22;2.55;;;;;;;;;;5043996;28;20329;-51
2022/10/04 11:54:08;;;;;;;4.55;3.00;;;;;;;;;;5018643;28;21122;-46
2022/10/04 11:56:55;;;;;;;3.92;3.00;;;;;;;;;;5030780;28;20744;-44
2022/10/04 11:59:36;;;;;;;7.28;3.67;;;;;;;;;;5032485;28;20678;-46
2022/10/04 12:02:31;;;;;;;5.53;3.25;;;;;;;;;;5029474;28;20671;-46
2022/10/04 12:05:12;;;;;;;5.65;3.60;;;;;;;;;;5030084;28;20314;-46
2022/10/04 12:08:09;;;;;;;7.47;4.30;;;;;;;;;;5030557;28;21521;-49
2022/10/04 12:10:41;;;;;;;5.45;3.80;;;;;;;;;;5029615;28;20301;-47
2022/10/04 12:13:45;;;;;;;5.95;4.63;;;;;;;;;;5029290;28;20250;-46
2022/10/04 12:16:55;;;;;;;3.95;3.47;;;;;;;;;;5014697;28;20230;-46
2022/10/04 12:19:40;;;;;;;5.53;3.58;;;;;;;;;;5024836;28;20289;-46
2022/10/04 12:22:43;;;;;;;5.05;3.72;;;;;;;;;;5031242;28;20199;-46
2022/10/04 12:25:41;;;;;;;6.57;3.47;;;;;;;;;;5029440;28;20711;-46
2022/10/04 12:28:16;;;;;;;6.65;4.20;;;;;;;;;;5029959;28;20293;-45
2022/10/04 12:30:55;;;;;;;4.18;3.33;;;;;;;;;;5031106;28;20343;-46
2022/10/04 12:33:33;;;;;;;3.63;3.00;;;;;;;;;;5031153;28;20720;-46
2022/10/04 12:36:07;;;;;;;5.90;3.45;;;;;;;;;;5044399;28;20906;-45
2022/10/04 12:38:48;;;;;;;5.30;3.00;;;;;;;;;;5032409;28;20300;-45
2022/10/04 12:41:27;;;;;;;4.28;3.40;;;;;;;;;;5030981;28;20665;-47
2022/10/04 12:44:23;;;;;;;5.90;3.85;;;;;;;;;;5031667;28;21368;-45
2022/10/04 12:47:26;;;;;;;8.82;4.80;;;;;;;;;;5029248;28;20782;-46
2022/10/04 12:50:10;;;;;;;3.67;2.60;;;;;;;;;;5030457;28;20210;-47
2022/10/04 12:53:05;;;;;;;3.88;3.13;;;;;;;;;;5029108;28;21357;-51
2022/10/04 12:56:05;;;;;;;4.68;3.20;;;;;;;;;;5025704;28;20298;-51
2022/10/04 12:58:38;;;;;;;4.68;3.60;;;;;;;;;;5031382;28;20230;-50
2022/10/04 13:01:25;;;;;;;5.85;3.92;;;;;;;;;;5030103;28;20260;-50
2022/10/04 13:03:51;;;;;;;4.22;3.20;;;;;;;;;;5028998;28;20296;-47
2022/10/04 13:06:47;;;;;;;6.05;3.30;;;;;;;;;;5029350;28;20748;-51
2022/10/04 13:09:41;;;;;;;4.03;3.13;;;;;;;;;;5030519;28;20594;-48
2022/10/04 13:12:21;;;;;;;4.28;3.10;;;;;;;;;;5030577;28;20734;-51
2022/10/04 13:14:59;;;;;;;4.85;3.45;;;;;;;;;;5028055;28;20285;-50
2022/10/04 13:17:45;;;;;;;5.30;3.30;;;;;;;;;;5029631;28;20704;-50
2022/10/04 13:20:24;;;;;;;3.58;2.70;;;;;;;;;;5044543;28;20736;-50
2022/10/04 13:23:06;;;;;;;5.07;3.10;;;;;;;;;;5030045;28;20246;-51
2022/10/04 13:25:51;;;;;;;4.35;3.22;;;;;;;;;;5031836;28;20714;-46
2022/10/04 13:28:48;;;;;;;8.65;3.97;;;;;;;;;;5028338;28;20230;-48
2022/10/04 13:31:40;;;;;;;4.75;3.20;;;;;;;;;;5005849;28;20230;-47
2022/10/04 13:34:41;;;;;;;5.43;3.35;;;;;;;;;;5029674;28;20226;-52
2022/10/04 13:37:19;;;;;;;4.32;3.08;;;;;;;;;;5029754;28;20310;-51
2022/10/04 13:40:20;;;;;;;4.20;3.28;;;;;;;;;;5029919;28;20264;-50
2022/10/04 13:42:56;;;;;;;4.55;3.40;;;;;;;;;;5045038;28;20273;-52
2022/10/04 13:46:13;;;;;;;4.97;3.45;;;;;;;;;;5030864;28;20222;-51
2022/10/04 13:48:42;;;;;;;5.10;3.78;;;;;;;;;;5001221;28;20202;-46
2022/10/04 13:51:24;;;;;;;4.95;3.10;;;;;;;;;;5026364;28;20297;-48
2022/10/04 13:57:15;;;;;;;6.03;3.15;;;;;;;;;;5042431;28;20877;-49
2022/10/04 14:00:04;;;;;;;3.90;3.50;;;;;;;;;;5038709;28;20231;-50
2022/10/04 14:03:11;;;;;;;7.80;3.53;;;;;;;;;;5037014;28;20776;-53
2022/10/04 14:06:02;;;;;;;4.47;3.13;;;;;;;;;;5030051;28;20316;-52
2022/10/04 14:08:55;;;;;;;5.80;3.30;;;;;;;;;;5043982;28;20312;-51
2022/10/04 14:12:02;;;;;;;4.15;3.22;;;;;;;;;;5046417;28;20226;-50
2022/10/04 14:14:54;;;;;;;3.78;2.92;;;;;;;;;;5027247;28;20697;-53
2022/10/04 14:17:29;;;;;;;3.97;2.78;;;;;;;;;;5029800;28;20302;-50
2022/10/04 14:20:29;;;;;;;4.55;3.30;;;;;;;;;;5030114;28;20300;-49
2022/10/04 14:23:33;;;;;;;5.47;3.20;;;;;;;;;;5028623;28;20802;-53
2022/10/04 14:26:27;;;;;;;3.50;2.75;;;;;;;;;;5029436;28;20322;-51
2022/10/04 14:29:04;;;;;;;6.38;3.30;;;;;;;;;;5028571;28;20222;-51
2022/10/04 14:31:48;;;;;;;3.90;3.08;;;;;;;;;;5027916;28;20230;-50
2022/10/04 14:34:40;;;;;;;3.75;2.90;;;;;;;;;;5027563;28;20272;-52
2022/10/04 14:37:38;;;;;;;5.50;3.55;;;;;;;;;;5025611;28;20203;-50
2022/10/04 14:40:30;;;;;;;5.07;3.40;;;;;;;;;;5031194;28;20233;-53
2022/10/04 14:43:27;;;;;;;5.87;3.30;;;;;;;;;;5027946;28;20637;-52
2022/10/04 14:46:23;;;;;;;5.57;4.17;;;;;;;;;;5029226;28;20242;-54
2022/10/04 14:48:58;;;;;;;4.35;3.70;;;;;;;;;;5044655;28;20329;-50
2022/10/04 14:51:48;;;;;;;5.30;3.78;;;;;;;;;;5028153;28;20305;-51
2022/10/04 14:54:45;;;;;;;4.65;3.60;;;;;;;;;;5027947;28;20313;-50
2022/10/04 14:57:51;;;;;;;4.28;3.20;;;;;;;;;;5028113;28;20223;-51
2022/10/04 15:00:22;;;;;;;4.47;3.50;;;;;;;;;;5015362;28;20299;-49
2022/10/04 15:03:13;;;;;;;5.70;3.83;;;;;;;;;;5046634;28;20256;-51
2022/10/04 15:05:51;;;;;;;7.63;4.35;;;;;;;;;;5028791;28;20326;-50
2022/10/04 15:08:21;;;;;;;4.75;3.70;;;;;;;;;;5033374;28;20237;-52
2022/10/04 15:10:51;;;;;;;7.40;3.63;;;;;;;;;;5028824;28;20409;-52
2022/10/04 15:13:34;;;;;;;4.72;3.70;;;;;;;;;;5030764;28;20744;-50
2022/10/04 15:16:19;;;;;;;6.65;3.97;;;;;;;;;;5032597;28;20729;-52
2022/10/04 15:18:53;;;;;;;6.63;4.47;;;;;;;;;;5031358;28;20280;-48
2022/10/04 15:21:29;;;;;;;4.70;3.08;;;;;;;;;;5030323;28;20658;-53
2022/10/04 15:24:16;;;;;;;3.67;2.47;;;;;;;;;;5030589;28;20223;-50
2022/10/04 15:26:55;;;;;;;2.72;2.53;;;;;;;;;;5031282;28;20321;-48
2022/10/04 15:29:39;;;;;;;7.15;4.07;;;;;;;;;;5030054;28;20301;-51
2022/10/04 15:32:36;;;;;;;6.47;4.45;;;;;;;;;;5032873;28;20211;-50
2022/10/04 15:35:44;;;;;;;6.93;4.00;;;;;;;;;;5029158;28;20227;-48
2022/10/04 15:38:31;;;;;;;7.18;4.70;;;;;;;;;;5029354;28;20802;-47
2022/10/04 15:41:35;;;;;;;7.13;4.35;;;;;;;;;;5030384;28;21294;-53
2022/10/04 15:44:10;;;;;;;6.15;4.05;;;;;;;;;;5032108;28;20320;-51
2022/10/04 15:46:50;;;;;;;3.90;3.00;;;;;;;;;;5031960;28;20246;-53
2022/10/04 15:49:53;;;;;;;4.18;3.30;;;;;;;;;;5030421;28;20655;-50
2022/10/04 15:52:38;;;;;;;6.72;4.35;;;;;;;;;;5030380;28;20275;-53
2022/10/04 15:55:17;;;;;;;5.25;4.15;;;;;;;;;;5031226;28;20289;-53
2022/10/04 15:57:44;;;;;;;7.03;4.68;;;;;;;;;;5029404;28;20276;-50
2022/10/04 16:00:22;;;;;;;5.45;3.85;;;;;;;;;;5031350;28;20744;-50
2022/10/04 16:02:55;;;;;;;7.25;4.50;;;;;;;;;;5045994;28;20647;-49
2022/10/04 16:05:23;;;;;;;4.83;3.40;;;;;;;;;;5029032;28;20303;-54
2022/10/04 16:08:09;;;;;;;5.90;4.10;;;;;;;;;;5029342;28;20766;-49
2022/10/04 16:10:57;;;;;;;6.82;4.40;;;;;;;;;;5030033;28;20692;-53
2022/10/04 16:13:50;;;;;;;6.47;4.57;;;;;;;;;;5031735;28;20258;-48
2022/10/04 16:16:16;;;;;;;4.90;4.07;;;;;;;;;;5011906;28;20195;-53
2022/10/04 16:19:08;;;;;;;5.90;4.00;;;;;;;;;;5029960;28;20289;-51
2022/10/04 16:21:41;;;;;;;8.05;4.32;;;;;;;;;;5030324;28;20207;-54